Terminal Aerodrome Forecast
Issued by NWS

Home | Current Version | Previous Version | Text Only | Print | Product List | Glossary Off
Versions: 1 2 3 4 5 6 7 8 9 10 11 12 13 14 15 16

000
FTUS43 KIWX 031121
TAFSBN
TAF
KSBN 031121Z 0312/0412 33004KT P6SM SCT050
     FM031600 27008KT P6SM SCT050
     FM040000 22010KT P6SM BKN050
     FM040900 22011KT 5SM SHRA BR OVC020=

USA.gov is the U.S. government's official web portal to all federal, state and local government web resources and services.